createdAt,value
2019-04-28T00:08:52.668Z,100.00
2019-04-28T00:19:00.926Z,100.00
2019-04-28T00:29:04.870Z,100.00
2019-04-28T00:39:08.494Z,100.00
2019-04-28T00:49:11.881Z,100.00
2019-04-28T00:59:18.918Z,100.00
2019-04-28T01:09:26.206Z,100.00
2019-04-28T01:19:31.380Z,100.00
2019-04-28T01:29:34.598Z,100.00
2019-04-28T01:39:37.170Z,100.00
2019-04-28T01:49:40.576Z,100.00
2019-04-28T01:59:44.173Z,100.00
2019-04-28T02:09:49.096Z,100.00
2019-04-28T02:19:53.449Z,100.00
2019-04-28T02:29:56.329Z,100.00
2019-04-28T02:40:02.848Z,100.00
2019-04-28T02:50:11.406Z,100.00
2019-04-28T03:00:21.340Z,100.00
2019-04-28T03:10:24.312Z,100.00
2019-04-28T03:20:26.991Z,100.00
2019-04-28T03:30:54.105Z,100.00
2019-04-28T03:41:01.068Z,100.00
2019-04-28T03:51:05.724Z,100.00
2019-04-28T04:01:10.855Z,100.00
2019-04-28T04:11:16.358Z,100.00
2019-04-28T04:21:23.619Z,100.00
2019-04-28T04:31:31.800Z,100.00
2019-04-28T04:41:36.551Z,90.63
2019-04-28T04:51:43.320Z,80.85
2019-04-28T05:01:49.609Z,73.65
2019-04-28T05:11:52.432Z,73.16
2019-04-28T05:21:55.053Z,65.21
2019-04-28T05:31:59.768Z,67.96
2019-04-28T05:42:03.636Z,65.20
2019-04-28T05:52:11.940Z,60.48
2019-04-28T06:02:24.546Z,60.63
2019-04-28T06:12:27.103Z,62.11
2019-04-28T06:22:30.959Z,59.63
2019-04-28T06:32:34.658Z,53.00
2019-04-28T06:42:38.774Z,50.29
2019-04-28T06:52:42.857Z,48.29
2019-04-28T07:02:46.752Z,43.31
2019-04-28T07:12:49.317Z,49.20
2019-04-28T07:22:51.874Z,48.54
2019-04-28T07:32:55.433Z,48.46
2019-04-28T07:42:59.598Z,48.69
2019-04-28T07:53:09.307Z,45.98
2019-04-28T08:03:12.595Z,45.92
2019-04-28T08:13:17.082Z,49.32
2019-04-28T08:23:22.105Z,49.10
2019-04-28T08:33:40.694Z,44.54
2019-04-28T08:43:43.259Z,45.28
2019-04-28T08:53:48.125Z,44.59
2019-04-28T09:03:50.869Z,47.08
2019-04-28T09:13:55.306Z,47.92
2019-04-28T09:23:58.534Z,52.45
2019-04-28T09:34:01.759Z,55.33
2019-04-28T09:44:09.551Z,54.82
2019-04-28T09:54:13.435Z,54.68
2019-04-28T10:04:15.998Z,55.68
2019-04-28T10:14:19.014Z,55.86
2019-04-28T10:24:21.572Z,52.35
2019-04-28T10:34:24.522Z,53.85
2019-04-28T10:44:30.127Z,56.37
2019-04-28T10:54:34.288Z,56.24
2019-04-28T11:04:43.239Z,54.55
2019-04-28T11:14:46.654Z,51.18
2019-04-28T11:24:52.262Z,52.58
2019-04-28T11:35:01.445Z,53.21
2019-04-28T11:45:06.126Z,51.72
2019-04-28T11:55:10.070Z,48.83
2019-04-28T12:05:14.507Z,49.67
2019-04-28T12:15:32.858Z,47.32
2019-04-28T12:25:36.073Z,42.14
2019-04-28T12:35:47.616Z,43.29
2019-04-28T12:45:46.682Z,41.39
2019-04-28T12:55:52.390Z,42.63
2019-04-28T13:06:03.712Z,40.78
2019-04-28T13:16:04.196Z,39.83
2019-04-28T13:26:10.030Z,41.36
2019-04-28T13:36:14.994Z,43.21
2019-04-28T13:46:18.643Z,40.20
2019-04-28T13:56:23.955Z,41.05
2019-04-28T14:06:29.667Z,40.59
2019-04-28T14:16:32.273Z,41.59
2019-04-28T14:26:36.417Z,43.47
2019-04-28T14:36:42.133Z,45.58
2019-04-28T14:46:46.676Z,45.33
2019-04-28T14:56:50.975Z,45.87
2019-04-28T15:06:59.641Z,45.61
2019-04-28T15:17:03.033Z,47.45
2019-04-28T15:27:06.909Z,46.67
2019-04-28T15:37:10.329Z,48.40
2019-04-28T15:47:13.160Z,47.72
2019-04-28T15:57:16.558Z,47.08
2019-04-28T16:07:25.172Z,48.02
2019-04-28T16:17:24.123Z,48.64
2019-04-28T16:27:28.368Z,51.44
2019-04-28T16:37:39.102Z,56.37
2019-04-28T16:47:38.018Z,62.35
2019-04-28T16:57:54.821Z,65.87
2019-04-28T17:07:59.583Z,67.42
2019-04-28T17:18:02.171Z,66.65
2019-04-28T17:28:05.256Z,66.09
2019-04-28T17:38:08.357Z,67.21
2019-04-28T17:48:15.728Z,68.64
2019-04-28T17:58:18.872Z,69.64
2019-04-28T18:08:22.656Z,67.89
2019-04-28T18:18:33.221Z,67.79
2019-04-28T18:28:37.761Z,70.11
2019-04-28T18:38:44.604Z,72.22
2019-04-28T18:48:48.931Z,70.04
2019-04-28T18:58:52.173Z,71.18
2019-04-28T19:09:13.161Z,71.61
2019-04-28T19:19:20.392Z,75.31
2019-04-28T19:29:23.018Z,72.37
2019-04-28T19:39:27.152Z,75.79
2019-04-28T19:49:31.510Z,76.36
2019-04-28T20:10:08.302Z,78.67
2019-04-28T20:20:11.158Z,79.47
2019-04-28T20:30:17.022Z,78.87
2019-04-28T20:40:22.885Z,78.32
2019-04-28T20:50:26.102Z,79.91
2019-04-28T21:00:29.588Z,78.39
2019-04-28T21:10:38.280Z,82.07
2019-04-28T21:20:37.723Z,82.15
2019-04-28T21:30:41.167Z,81.54
2019-04-28T21:40:44.706Z,81.81
2019-04-28T21:50:48.601Z,82.84
2019-04-28T22:00:54.238Z,86.17
2019-04-28T22:10:57.110Z,85.33
2019-04-28T22:20:59.695Z,88.60
2019-04-28T22:31:02.256Z,89.63
2019-04-28T22:41:05.747Z,88.00
2019-04-28T22:51:08.328Z,88.65
2019-04-28T23:01:21.196Z,91.96
2019-04-28T23:11:25.514Z,95.90
2019-04-28T23:21:30.078Z,97.55
2019-04-28T23:31:32.629Z,94.14
2019-04-28T23:41:53.118Z,92.47
2019-04-28T23:52:16.601Z,94.54
